sensor_id;sensor_type;location;lat;lon;timestamp;temperature;humidity
8862;DHT22;4799;50.996;4.754;2022-11-09T00:02:18;14.20;99.90
8862;DHT22;4799;50.996;4.754;2022-11-09T00:04:43;14.20;99.90
8862;DHT22;4799;50.996;4.754;2022-11-09T00:07:09;14.20;99.90
8862;DHT22;4799;50.996;4.754;2022-11-09T00:09:35;14.20;99.90
8862;DHT22;4799;50.996;4.754;2022-11-09T00:12:00;14.20;99.90
8862;DHT22;4799;50.996;4.754;2022-11-09T00:14:29;14.20;99.90
8862;DHT22;4799;50.996;4.754;2022-11-09T00:16:56;14.20;99.90
8862;DHT22;4799;50.996;4.754;2022-11-09T00:19:22;14.20;99.90
8862;DHT22;4799;50.996;4.754;2022-11-09T00:21:48;14.10;99.90
8862;DHT22;4799;50.996;4.754;2022-11-09T00:24:14;14.10;99.90
8862;DHT22;4799;50.996;4.754;2022-11-09T00:26:40;14.10;99.90
8862;DHT22;4799;50.996;4.754;2022-11-09T00:29:06;14.10;99.90
8862;DHT22;4799;50.996;4.754;2022-11-09T00:31:31;14.00;99.90
8862;DHT22;4799;50.996;4.754;2022-11-09T00:33:57;13.90;99.90
8862;DHT22;4799;50.996;4.754;2022-11-09T00:36:24;13.90;99.90
8862;DHT22;4799;50.996;4.754;2022-11-09T00:38:52;13.80;99.90
8862;DHT22;4799;50.996;4.754;2022-11-09T00:41:19;13.70;99.90
8862;DHT22;4799;50.996;4.754;2022-11-09T00:43:46;13.70;99.90
8862;DHT22;4799;50.996;4.754;2022-11-09T00:46:12;13.70;99.90
8862;DHT22;4799;50.996;4.754;2022-11-09T00:48:38;13.70;99.90
8862;DHT22;4799;50.996;4.754;2022-11-09T00:51:04;13.70;99.90
8862;DHT22;4799;50.996;4.754;2022-11-09T00:53:30;13.80;99.90
8862;DHT22;4799;50.996;4.754;2022-11-09T00:55:58;13.90;99.90
8862;DHT22;4799;50.996;4.754;2022-11-09T00:58:26;13.90;99.90
8862;DHT22;4799;50.996;4.754;2022-11-09T01:00:52;13.90;99.90
8862;DHT22;4799;50.996;4.754;2022-11-09T01:03:19;13.90;99.90
8862;DHT22;4799;50.996;4.754;2022-11-09T01:05:45;13.90;99.90
8862;DHT22;4799;50.996;4.754;2022-11-09T01:08:11;13.90;99.90
8862;DHT22;4799;50.996;4.754;2022-11-09T01:10:42;13.80;99.90
8862;DHT22;4799;50.996;4.754;2022-11-09T01:13:08;13.80;99.90
8862;DHT22;4799;50.996;4.754;2022-11-09T01:15:39;13.70;99.90
8862;DHT22;4799;50.996;4.754;2022-11-09T01:18:06;13.70;99.90
8862;DHT22;4799;50.996;4.754;2022-11-09T01:20:31;13.60;99.90
8862;DHT22;4799;50.996;4.754;2022-11-09T01:22:57;13.50;99.90
8862;DHT22;4799;50.996;4.754;2022-11-09T01:25:23;13.50;99.90
8862;DHT22;4799;50.996;4.754;2022-11-09T01:27:48;13.50;99.90
8862;DHT22;4799;50.996;4.754;2022-11-09T01:30:14;13.50;99.90
8862;DHT22;4799;50.996;4.754;2022-11-09T01:32:40;13.40;99.90
8862;DHT22;4799;50.996;4.754;2022-11-09T01:35:06;13.50;99.90
8862;DHT22;4799;50.996;4.754;2022-11-09T01:37:32;13.40;99.90
8862;DHT22;4799;50.996;4.754;2022-11-09T01:39:57;13.40;99.90
8862;DHT22;4799;50.996;4.754;2022-11-09T01:42:23;13.40;99.90
8862;DHT22;4799;50.996;4.754;2022-11-09T01:45:17;13.40;99.90
8862;DHT22;4799;50.996;4.754;2022-11-09T01:47:47;13.40;99.90
8862;DHT22;4799;50.996;4.754;2022-11-09T01:50:26;13.30;99.90
8862;DHT22;4799;50.996;4.754;2022-11-09T01:52:53;13.40;99.90
8862;DHT22;4799;50.996;4.754;2022-11-09T01:55:21;13.40;99.90
8862;DHT22;4799;50.996;4.754;2022-11-09T01:57:59;13.40;99.90
8862;DHT22;4799;50.996;4.754;2022-11-09T02:00:26;13.40;99.90
8862;DHT22;4799;50.996;4.754;2022-11-09T02:03:06;13.40;99.90
8862;DHT22;4799;50.996;4.754;2022-11-09T02:05:35;13.50;99.90
8862;DHT22;4799;50.996;4.754;2022-11-09T02:08:03;13.50;99.90
8862;DHT22;4799;50.996;4.754;2022-11-09T02:10:47;13.50;99.90
8862;DHT22;4799;50.996;4.754;2022-11-09T02:13:17;13.50;99.90
8862;DHT22;4799;50.996;4.754;2022-11-09T02:15:44;13.50;99.90
8862;DHT22;4799;50.996;4.754;2022-11-09T02:18:10;13.60;99.90
8862;DHT22;4799;50.996;4.754;2022-11-09T02:20:53;13.60;99.90
8862;DHT22;4799;50.996;4.754;2022-11-09T02:23:19;13.70;99.90
8862;DHT22;4799;50.996;4.754;2022-11-09T02:25:49;13.70;99.90
8862;DHT22;4799;50.996;4.754;2022-11-09T02:28:15;13.70;99.90
8862;DHT22;4799;50.996;4.754;2022-11-09T02:30:43;13.70;99.90
8862;DHT22;4799;50.996;4.754;2022-11-09T02:33:10;13.70;99.90
8862;DHT22;4799;50.996;4.754;2022-11-09T02:35:35;13.70;99.90
8862;DHT22;4799;50.996;4.754;2022-11-09T02:38:01;13.70;99.90
8862;DHT22;4799;50.996;4.754;2022-11-09T02:40:33;13.70;99.90
8862;DHT22;4799;50.996;4.754;2022-11-09T02:43:03;13.70;99.90
8862;DHT22;4799;50.996;4.754;2022-11-09T02:45:29;13.70;99.90
8862;DHT22;4799;50.996;4.754;2022-11-09T02:47:55;13.60;99.90
8862;DHT22;4799;50.996;4.754;2022-11-09T02:50:21;13.60;99.90
8862;DHT22;4799;50.996;4.754;2022-11-09T02:52:47;13.60;99.90
8862;DHT22;4799;50.996;4.754;2022-11-09T02:55:12;13.60;99.90
8862;DHT22;4799;50.996;4.754;2022-11-09T02:57:38;13.60;99.90
8862;DHT22;4799;50.996;4.754;2022-11-09T03:00:05;13.60;99.90
8862;DHT22;4799;50.996;4.754;2022-11-09T03:02:31;13.60;99.90
8862;DHT22;4799;50.996;4.754;2022-11-09T03:04:57;13.60;99.90
8862;DHT22;4799;50.996;4.754;2022-11-09T03:07:22;13.70;99.90
8862;DHT22;4799;50.996;4.754;2022-11-09T03:09:48;13.60;99.90
8862;DHT22;4799;50.996;4.754;2022-11-09T03:12:14;13.60;99.90
8862;DHT22;4799;50.996;4.754;2022-11-09T03:15:06;13.50;99.90
8862;DHT22;4799;50.996;4.754;2022-11-09T03:17:33;13.50;99.90
8862;DHT22;4799;50.996;4.754;2022-11-09T03:19:59;13.40;99.90
8862;DHT22;4799;50.996;4.754;2022-11-09T03:22:25;13.40;99.90
8862;DHT22;4799;50.996;4.754;2022-11-09T03:24:51;13.40;99.90
8862;DHT22;4799;50.996;4.754;2022-11-09T03:27:17;13.30;99.90
8862;DHT22;4799;50.996;4.754;2022-11-09T03:29:43;13.20;99.90
8862;DHT22;4799;50.996;4.754;2022-11-09T03:32:09;13.20;99.90
8862;DHT22;4799;50.996;4.754;2022-11-09T03:34:35;13.20;99.90
8862;DHT22;4799;50.996;4.754;2022-11-09T03:37:00;13.10;99.90
8862;DHT22;4799;50.996;4.754;2022-11-09T03:39:26;13.00;99.90
8862;DHT22;4799;50.996;4.754;2022-11-09T03:41:52;13.00;99.90
8862;DHT22;4799;50.996;4.754;2022-11-09T03:44:17;13.00;99.90
8862;DHT22;4799;50.996;4.754;2022-11-09T03:46:45;13.00;99.90
8862;DHT22;4799;50.996;4.754;2022-11-09T03:49:11;13.00;99.90
8862;DHT22;4799;50.996;4.754;2022-11-09T03:51:37;13.10;99.90
8862;DHT22;4799;50.996;4.754;2022-11-09T03:54:03;13.10;99.90
8862;DHT22;4799;50.996;4.754;2022-11-09T03:56:28;13.10;99.90
8862;DHT22;4799;50.996;4.754;2022-11-09T03:58:54;13.10;99.90
8862;DHT22;4799;50.996;4.754;2022-11-09T04:01:20;13.10;99.90
8862;DHT22;4799;50.996;4.754;2022-11-09T04:03:45;13.10;99.90
8862;DHT22;4799;50.996;4.754;2022-11-09T04:06:11;13.10;99.90
8862;DHT22;4799;50.996;4.754;2022-11-09T04:08:37;13.10;99.90
8862;DHT22;4799;50.996;4.754;2022-11-09T04:11:03;13.10;99.90
8862;DHT22;4799;50.996;4.754;2022-11-09T04:13:28;13.00;99.90
8862;DHT22;4799;50.996;4.754;2022-11-09T04:15:54;13.00;99.90
8862;DHT22;4799;50.996;4.754;2022-11-09T04:18:20;13.00;99.90
8862;DHT22;4799;50.996;4.754;2022-11-09T04:20:45;13.00;99.90
8862;DHT22;4799;50.996;4.754;2022-11-09T04:23:12;12.90;99.90
8862;DHT22;4799;50.996;4.754;2022-11-09T04:25:39;12.90;99.90
8862;DHT22;4799;50.996;4.754;2022-11-09T04:28:07;12.80;99.90
8862;DHT22;4799;50.996;4.754;2022-11-09T04:30:35;12.70;99.90
8862;DHT22;4799;50.996;4.754;2022-11-09T04:33:01;12.70;99.90
8862;DHT22;4799;50.996;4.754;2022-11-09T04:35:29;12.60;99.90
8862;DHT22;4799;50.996;4.754;2022-11-09T04:37:56;12.60;99.90
8862;DHT22;4799;50.996;4.754;2022-11-09T04:40:23;12.50;99.90
8862;DHT22;4799;50.996;4.754;2022-11-09T04:42:50;12.50;99.90
8862;DHT22;4799;50.996;4.754;2022-11-09T04:45:16;12.40;99.90
8862;DHT22;4799;50.996;4.754;2022-11-09T04:47:41;12.30;99.90
8862;DHT22;4799;50.996;4.754;2022-11-09T04:50:07;12.30;99.90
8862;DHT22;4799;50.996;4.754;2022-11-09T04:52:33;12.20;99.90
8862;DHT22;4799;50.996;4.754;2022-11-09T04:54:59;12.20;99.90
8862;DHT22;4799;50.996;4.754;2022-11-09T04:57:24;12.10;99.90
8862;DHT22;4799;50.996;4.754;2022-11-09T04:59:50;12.00;99.90
8862;DHT22;4799;50.996;4.754;2022-11-09T05:02:16;12.00;99.90
8862;DHT22;4799;50.996;4.754;2022-11-09T05:04:42;12.00;99.90
8862;DHT22;4799;50.996;4.754;2022-11-09T05:07:08;11.90;99.90
8862;DHT22;4799;50.996;4.754;2022-11-09T05:09:33;11.90;99.90
8862;DHT22;4799;50.996;4.754;2022-11-09T05:11:59;11.90;99.90
8862;DHT22;4799;50.996;4.754;2022-11-09T05:14:25;11.80;99.90
8862;DHT22;4799;50.996;4.754;2022-11-09T05:16:50;11.80;99.90
8862;DHT22;4799;50.996;4.754;2022-11-09T05:19:16;11.80;99.90
8862;DHT22;4799;50.996;4.754;2022-11-09T05:21:42;11.70;99.90
8862;DHT22;4799;50.996;4.754;2022-11-09T05:24:07;11.70;99.90
8862;DHT22;4799;50.996;4.754;2022-11-09T05:26:38;11.70;99.90
8862;DHT22;4799;50.996;4.754;2022-11-09T05:29:07;11.70;99.90
8862;DHT22;4799;50.996;4.754;2022-11-09T05:31:33;11.80;99.90
8862;DHT22;4799;50.996;4.754;2022-11-09T05:33:59;11.70;99.90
8862;DHT22;4799;50.996;4.754;2022-11-09T05:36:26;11.70;99.90
8862;DHT22;4799;50.996;4.754;2022-11-09T05:38:53;11.70;99.90
8862;DHT22;4799;50.996;4.754;2022-11-09T05:41:19;11.70;99.90
8862;DHT22;4799;50.996;4.754;2022-11-09T05:43:45;11.60;99.90
8862;DHT22;4799;50.996;4.754;2022-11-09T05:46:15;11.60;99.90
8862;DHT22;4799;50.996;4.754;2022-11-09T05:48:42;11.60;99.90
8862;DHT22;4799;50.996;4.754;2022-11-09T05:51:10;11.60;99.90
8862;DHT22;4799;50.996;4.754;2022-11-09T05:53:36;11.50;99.90
8862;DHT22;4799;50.996;4.754;2022-11-09T05:56:04;11.60;99.90
8862;DHT22;4799;50.996;4.754;2022-11-09T05:58:31;11.50;99.90
8862;DHT22;4799;50.996;4.754;2022-11-09T06:01:05;11.50;99.90
8862;DHT22;4799;50.996;4.754;2022-11-09T06:03:31;11.40;99.90
8862;DHT22;4799;50.996;4.754;2022-11-09T06:06:00;11.40;99.90
8862;DHT22;4799;50.996;4.754;2022-11-09T06:08:27;11.40;99.90
8862;DHT22;4799;50.996;4.754;2022-11-09T06:10:58;11.30;99.90
8862;DHT22;4799;50.996;4.754;2022-11-09T06:13:24;11.30;99.90
8862;DHT22;4799;50.996;4.754;2022-11-09T06:15:57;11.30;99.90
8862;DHT22;4799;50.996;4.754;2022-11-09T06:18:24;11.30;99.90
8862;DHT22;4799;50.996;4.754;2022-11-09T06:20:54;11.30;99.90
8862;DHT22;4799;50.996;4.754;2022-11-09T06:23:21;11.30;99.90
8862;DHT22;4799;50.996;4.754;2022-11-09T06:26:10;11.30;99.90
8862;DHT22;4799;50.996;4.754;2022-11-09T06:28:40;11.30;99.90
8862;DHT22;4799;50.996;4.754;2022-11-09T06:31:10;11.30;99.90
8862;DHT22;4799;50.996;4.754;2022-11-09T06:33:36;11.20;99.90
8862;DHT22;4799;50.996;4.754;2022-11-09T06:36:03;11.20;99.90
8862;DHT22;4799;50.996;4.754;2022-11-09T06:38:29;11.20;99.90
8862;DHT22;4799;50.996;4.754;2022-11-09T06:40:57;11.20;99.90
8862;DHT22;4799;50.996;4.754;2022-11-09T06:43:23;11.20;99.90
8862;DHT22;4799;50.996;4.754;2022-11-09T06:45:49;11.20;99.90
8862;DHT22;4799;50.996;4.754;2022-11-09T06:48:16;11.20;99.90
8862;DHT22;4799;50.996;4.754;2022-11-09T06:50:41;11.20;99.90
8862;DHT22;4799;50.996;4.754;2022-11-09T06:53:12;11.10;99.90
8862;DHT22;4799;50.996;4.754;2022-11-09T06:55:38;11.10;99.90
8862;DHT22;4799;50.996;4.754;2022-11-09T06:58:09;11.10;99.90
8862;DHT22;4799;50.996;4.754;2022-11-09T07:00:35;11.10;99.90
8862;DHT22;4799;50.996;4.754;2022-11-09T07:03:02;11.10;99.90
8862;DHT22;4799;50.996;4.754;2022-11-09T07:05:28;11.10;99.90
8862;DHT22;4799;50.996;4.754;2022-11-09T07:07:53;11.10;99.90
8862;DHT22;4799;50.996;4.754;2022-11-09T07:10:19;11.10;99.90
8862;DHT22;4799;50.996;4.754;2022-11-09T07:12:45;11.10;99.90
8862;DHT22;4799;50.996;4.754;2022-11-09T07:15:11;11.20;99.90
8862;DHT22;4799;50.996;4.754;2022-11-09T07:17:37;11.20;99.90
8862;DHT22;4799;50.996;4.754;2022-11-09T07:20:08;11.20;99.90
8862;DHT22;4799;50.996;4.754;2022-11-09T07:22:34;11.20;99.90
8862;DHT22;4799;50.996;4.754;2022-11-09T07:25:05;11.20;99.90
8862;DHT22;4799;50.996;4.754;2022-11-09T07:27:31;11.30;99.90
8862;DHT22;4799;50.996;4.754;2022-11-09T07:29:57;11.30;99.90
8862;DHT22;4799;50.996;4.754;2022-11-09T07:32:23;11.30;99.90
8862;DHT22;4799;50.996;4.754;2022-11-09T07:34:48;11.30;99.90
8862;DHT22;4799;50.996;4.754;2022-11-09T07:37:14;11.30;99.90
8862;DHT22;4799;50.996;4.754;2022-11-09T07:39:40;11.30;99.90
8862;DHT22;4799;50.996;4.754;2022-11-09T07:42:05;11.40;99.90
8862;DHT22;4799;50.996;4.754;2022-11-09T07:44:31;11.40;99.90
8862;DHT22;4799;50.996;4.754;2022-11-09T07:46:57;11.40;99.90
8862;DHT22;4799;50.996;4.754;2022-11-09T07:49:22;11.40;99.90
8862;DHT22;4799;50.996;4.754;2022-11-09T07:51:48;11.40;99.90
8862;DHT22;4799;50.996;4.754;2022-11-09T07:54:14;11.50;99.90
8862;DHT22;4799;50.996;4.754;2022-11-09T07:56:39;11.50;99.90
8862;DHT22;4799;50.996;4.754;2022-11-09T07:59:05;11.50;99.90
8862;DHT22;4799;50.996;4.754;2022-11-09T08:01:31;11.50;99.90
8862;DHT22;4799;50.996;4.754;2022-11-09T08:03:57;11.50;99.90
8862;DHT22;4799;50.996;4.754;2022-11-09T08:06:22;11.50;99.90
8862;DHT22;4799;50.996;4.754;2022-11-09T08:08:55;11.60;99.90
8862;DHT22;4799;50.996;4.754;2022-11-09T08:11:22;11.60;99.90
8862;DHT22;4799;50.996;4.754;2022-11-09T08:13:48;11.70;99.90
8862;DHT22;4799;50.996;4.754;2022-11-09T08:16:14;11.70;99.90
8862;DHT22;4799;50.996;4.754;2022-11-09T08:18:40;11.80;99.90
8862;DHT22;4799;50.996;4.754;2022-11-09T08:21:06;11.80;99.90
8862;DHT22;4799;50.996;4.754;2022-11-09T08:23:32;11.90;99.90
8862;DHT22;4799;50.996;4.754;2022-11-09T08:26:01;11.90;99.90
8862;DHT22;4799;50.996;4.754;2022-11-09T08:28:27;11.90;99.90
8862;DHT22;4799;50.996;4.754;2022-11-09T08:31:04;12.00;99.90
8862;DHT22;4799;50.996;4.754;2022-11-09T08:33:34;12.00;99.90
8862;DHT22;4799;50.996;4.754;2022-11-09T08:36:00;12.00;99.90
8862;DHT22;4799;50.996;4.754;2022-11-09T08:38:26;12.00;99.90
8862;DHT22;4799;50.996;4.754;2022-11-09T08:40:56;12.10;99.90
8862;DHT22;4799;50.996;4.754;2022-11-09T08:43:22;12.10;99.90
8862;DHT22;4799;50.996;4.754;2022-11-09T08:45:48;12.20;99.90
8862;DHT22;4799;50.996;4.754;2022-11-09T08:48:14;12.30;99.90
8862;DHT22;4799;50.996;4.754;2022-11-09T08:50:39;12.30;99.90
8862;DHT22;4799;50.996;4.754;2022-11-09T08:53:05;12.40;99.90
8862;DHT22;4799;50.996;4.754;2022-11-09T08:55:33;12.40;99.90
8862;DHT22;4799;50.996;4.754;2022-11-09T08:58:00;12.40;99.90
8862;DHT22;4799;50.996;4.754;2022-11-09T09:00:27;12.50;99.90
8862;DHT22;4799;50.996;4.754;2022-11-09T09:02:53;12.50;99.90
8862;DHT22;4799;50.996;4.754;2022-11-09T09:05:19;12.60;99.90
8862;DHT22;4799;50.996;4.754;2022-11-09T09:07:45;12.70;99.90
8862;DHT22;4799;50.996;4.754;2022-11-09T09:10:11;12.70;99.90
8862;DHT22;4799;50.996;4.754;2022-11-09T09:12:37;12.80;99.90
8862;DHT22;4799;50.996;4.754;2022-11-09T09:15:03;12.80;99.90
8862;DHT22;4799;50.996;4.754;2022-11-09T09:17:30;12.80;99.90
8862;DHT22;4799;50.996;4.754;2022-11-09T09:19:56;12.80;99.90
8862;DHT22;4799;50.996;4.754;2022-11-09T09:22:22;12.80;99.90
8862;DHT22;4799;50.996;4.754;2022-11-09T09:24:47;12.90;99.90
8862;DHT22;4799;50.996;4.754;2022-11-09T09:27:13;13.10;99.90
8862;DHT22;4799;50.996;4.754;2022-11-09T09:29:39;13.10;99.90
8862;DHT22;4799;50.996;4.754;2022-11-09T09:32:05;13.20;99.90
8862;DHT22;4799;50.996;4.754;2022-11-09T09:34:31;13.20;99.90
8862;DHT22;4799;50.996;4.754;2022-11-09T09:36:57;13.30;99.90
8862;DHT22;4799;50.996;4.754;2022-11-09T09:39:22;13.50;99.90
8862;DHT22;4799;50.996;4.754;2022-11-09T09:41:54;13.50;99.90
8862;DHT22;4799;50.996;4.754;2022-11-09T09:44:42;13.60;99.90
8862;DHT22;4799;50.996;4.754;2022-11-09T09:50:12;13.80;99.90
8862;DHT22;4799;50.996;4.754;2022-11-09T09:52:50;13.90;99.90
8862;DHT22;4799;50.996;4.754;2022-11-09T09:55:19;14.00;99.90
8862;DHT22;4799;50.996;4.754;2022-11-09T09:58:47;14.00;99.90
8862;DHT22;4799;50.996;4.754;2022-11-09T10:00:47;14.10;99.90
8862;DHT22;4799;50.996;4.754;2022-11-09T10:03:20;14.20;99.90
8862;DHT22;4799;50.996;4.754;2022-11-09T10:09:44;14.20;99.90
8862;DHT22;4799;50.996;4.754;2022-11-09T10:12:26;14.20;99.90
8862;DHT22;4799;50.996;4.754;2022-11-09T10:25:47;14.70;99.90
8862;DHT22;4799;50.996;4.754;2022-11-09T10:28:16;14.80;99.90
8862;DHT22;4799;50.996;4.754;2022-11-09T10:30:42;14.90;99.90
8862;DHT22;4799;50.996;4.754;2022-11-09T10:38:01;15.20;99.90
8862;DHT22;4799;50.996;4.754;2022-11-09T10:40:41;15.30;99.90
8862;DHT22;4799;50.996;4.754;2022-11-09T10:43:14;15.30;99.90
8862;DHT22;4799;50.996;4.754;2022-11-09T10:45:42;15.30;99.90
8862;DHT22;4799;50.996;4.754;2022-11-09T10:48:09;15.30;99.90
8862;DHT22;4799;50.996;4.754;2022-11-09T10:50:46;15.50;99.90
8862;DHT22;4799;50.996;4.754;2022-11-09T10:53:14;15.50;99.90
8862;DHT22;4799;50.996;4.754;2022-11-09T10:56:03;15.70;99.90
8862;DHT22;4799;50.996;4.754;2022-11-09T10:58:45;15.80;99.90
8862;DHT22;4799;50.996;4.754;2022-11-09T11:01:23;15.90;99.90
8862;DHT22;4799;50.996;4.754;2022-11-09T11:03:51;15.90;99.90
8862;DHT22;4799;50.996;4.754;2022-11-09T11:13:46;15.50;99.90
8862;DHT22;4799;50.996;4.754;2022-11-09T11:18:45;15.40;99.90
8862;DHT22;4799;50.996;4.754;2022-11-09T11:21:16;15.50;99.90
8862;DHT22;4799;50.996;4.754;2022-11-09T11:23:42;15.60;99.90
8862;DHT22;4799;50.996;4.754;2022-11-09T11:28:49;15.70;99.90
8862;DHT22;4799;50.996;4.754;2022-11-09T11:31:19;15.90;99.90
8862;DHT22;4799;50.996;4.754;2022-11-09T11:33:45;15.90;99.90
8862;DHT22;4799;50.996;4.754;2022-11-09T11:36:19;16.00;99.90
8862;DHT22;4799;50.996;4.754;2022-11-09T11:39:00;16.10;99.90
8862;DHT22;4799;50.996;4.754;2022-11-09T11:52:01;15.70;99.90
8862;DHT22;4799;50.996;4.754;2022-11-09T11:57:35;15.60;99.90
8862;DHT22;4799;50.996;4.754;2022-11-09T12:00:18;15.50;99.90
8862;DHT22;4799;50.996;4.754;2022-11-09T12:17:12;15.70;99.90
8862;DHT22;4799;50.996;4.754;2022-11-09T12:19:44;15.50;99.90
8862;DHT22;4799;50.996;4.754;2022-11-09T12:25:17;15.30;99.90
8862;DHT22;4799;50.996;4.754;2022-11-09T12:31:10;15.20;99.90
8862;DHT22;4799;50.996;4.754;2022-11-09T12:33:43;15.30;99.90
8862;DHT22;4799;50.996;4.754;2022-11-09T12:36:22;15.50;99.90
8862;DHT22;4799;50.996;4.754;2022-11-09T12:39:02;15.70;99.90
8862;DHT22;4799;50.996;4.754;2022-11-09T12:41:35;15.80;99.90
8862;DHT22;4799;50.996;4.754;2022-11-09T12:44:27;15.80;99.90
8862;DHT22;4799;50.996;4.754;2022-11-09T12:47:03;15.70;99.90
8862;DHT22;4799;50.996;4.754;2022-11-09T12:49:35;15.50;99.90
8862;DHT22;4799;50.996;4.754;2022-11-09T12:52:04;15.30;99.90
8862;DHT22;4799;50.996;4.754;2022-11-09T12:54:30;15.10;99.90
8862;DHT22;4799;50.996;4.754;2022-11-09T12:57:03;15.00;99.90
8862;DHT22;4799;50.996;4.754;2022-11-09T13:01:57;14.90;99.90
8862;DHT22;4799;50.996;4.754;2022-11-09T13:04:24;14.80;99.90
8862;DHT22;4799;50.996;4.754;2022-11-09T13:09:28;14.80;99.90
8862;DHT22;4799;50.996;4.754;2022-11-09T13:11:55;14.60;99.90
8862;DHT22;4799;50.996;4.754;2022-11-09T13:16:57;14.40;99.90
8862;DHT22;4799;50.996;4.754;2022-11-09T13:24:56;14.10;99.90
8862;DHT22;4799;50.996;4.754;2022-11-09T13:27:42;14.10;99.90
8862;DHT22;4799;50.996;4.754;2022-11-09T13:35:55;14.00;99.90
8862;DHT22;4799;50.996;4.754;2022-11-09T13:38:26;13.90;99.90
8862;DHT22;4799;50.996;4.754;2022-11-09T13:41:03;13.90;99.90
8862;DHT22;4799;50.996;4.754;2022-11-09T13:46:38;13.90;99.90
8862;DHT22;4799;50.996;4.754;2022-11-09T13:49:40;14.00;99.90
8862;DHT22;4799;50.996;4.754;2022-11-09T13:55:36;14.20;99.90
8862;DHT22;4799;50.996;4.754;2022-11-09T13:58:36;14.30;99.90
8862;DHT22;4799;50.996;4.754;2022-11-09T14:01:02;14.40;99.90
8862;DHT22;4799;50.996;4.754;2022-11-09T14:03:29;14.40;99.90
8862;DHT22;4799;50.996;4.754;2022-11-09T14:05:57;14.30;99.90
8862;DHT22;4799;50.996;4.754;2022-11-09T14:08:35;14.30;99.90
8862;DHT22;4799;50.996;4.754;2022-11-09T14:17:01;14.30;99.90
8862;DHT22;4799;50.996;4.754;2022-11-09T14:22:14;14.20;99.90
8862;DHT22;4799;50.996;4.754;2022-11-09T14:24:41;14.20;99.90
8862;DHT22;4799;50.996;4.754;2022-11-09T14:29:45;14.10;99.90
8862;DHT22;4799;50.996;4.754;2022-11-09T14:32:21;14.10;99.90
8862;DHT22;4799;50.996;4.754;2022-11-09T14:34:47;14.10;99.90
8862;DHT22;4799;50.996;4.754;2022-11-09T14:37:13;14.10;99.90
8862;DHT22;4799;50.996;4.754;2022-11-09T14:39:40;14.00;99.90
8862;DHT22;4799;50.996;4.754;2022-11-09T14:42:06;14.00;99.90
8862;DHT22;4799;50.996;4.754;2022-11-09T14:44:35;14.00;99.90
8862;DHT22;4799;50.996;4.754;2022-11-09T14:47:10;14.00;99.90
8862;DHT22;4799;50.996;4.754;2022-11-09T14:49:39;14.00;99.90
8862;DHT22;4799;50.996;4.754;2022-11-09T14:52:05;14.10;99.90
8862;DHT22;4799;50.996;4.754;2022-11-09T14:54:33;14.20;99.90
8862;DHT22;4799;50.996;4.754;2022-11-09T14:57:00;14.30;99.90
8862;DHT22;4799;50.996;4.754;2022-11-09T14:59:33;14.30;99.90
8862;DHT22;4799;50.996;4.754;2022-11-09T15:02:04;14.40;99.90
8862;DHT22;4799;50.996;4.754;2022-11-09T15:04:50;14.30;99.90
8862;DHT22;4799;50.996;4.754;2022-11-09T15:07:19;14.20;99.90
8862;DHT22;4799;50.996;4.754;2022-11-09T15:09:48;14.10;99.90
8862;DHT22;4799;50.996;4.754;2022-11-09T15:12:16;14.00;99.90
8862;DHT22;4799;50.996;4.754;2022-11-09T15:14:51;13.90;99.90
8862;DHT22;4799;50.996;4.754;2022-11-09T15:17:30;13.80;99.90
8862;DHT22;4799;50.996;4.754;2022-11-09T15:19:59;13.70;99.90
8862;DHT22;4799;50.996;4.754;2022-11-09T15:22:54;13.60;99.90
8862;DHT22;4799;50.996;4.754;2022-11-09T15:25:52;13.50;99.90
8862;DHT22;4799;50.996;4.754;2022-11-09T15:28:26;13.40;99.90
8862;DHT22;4799;50.996;4.754;2022-11-09T15:35:58;13.20;99.90
8862;DHT22;4799;50.996;4.754;2022-11-09T15:38:38;13.10;99.90
8862;DHT22;4799;50.996;4.754;2022-11-09T15:41:13;13.00;99.90
8862;DHT22;4799;50.996;4.754;2022-11-09T15:43:39;13.00;99.90
8862;DHT22;4799;50.996;4.754;2022-11-09T15:46:05;12.90;99.90
8862;DHT22;4799;50.996;4.754;2022-11-09T15:48:31;12.80;99.90
8862;DHT22;4799;50.996;4.754;2022-11-09T15:50:57;12.80;99.90
8862;DHT22;4799;50.996;4.754;2022-11-09T15:53:22;12.70;99.90
8862;DHT22;4799;50.996;4.754;2022-11-09T15:55:49;12.60;99.90
8862;DHT22;4799;50.996;4.754;2022-11-09T15:58:16;12.60;99.90
8862;DHT22;4799;50.996;4.754;2022-11-09T16:00:43;12.50;99.90
8862;DHT22;4799;50.996;4.754;2022-11-09T16:03:10;12.40;99.90
8862;DHT22;4799;50.996;4.754;2022-11-09T16:05:36;12.40;99.90
8862;DHT22;4799;50.996;4.754;2022-11-09T16:08:02;12.30;99.90
8862;DHT22;4799;50.996;4.754;2022-11-09T16:10:28;12.30;99.90
8862;DHT22;4799;50.996;4.754;2022-11-09T16:12:58;12.20;99.90
8862;DHT22;4799;50.996;4.754;2022-11-09T16:15:24;12.20;99.90
8862;DHT22;4799;50.996;4.754;2022-11-09T16:17:51;12.20;99.90
8862;DHT22;4799;50.996;4.754;2022-11-09T16:20:18;12.10;99.90
8862;DHT22;4799;50.996;4.754;2022-11-09T16:22:45;12.10;99.90
8862;DHT22;4799;50.996;4.754;2022-11-09T16:25:12;12.00;99.90
8862;DHT22;4799;50.996;4.754;2022-11-09T16:27:38;11.90;99.90
8862;DHT22;4799;50.996;4.754;2022-11-09T16:30:05;11.90;99.90
8862;DHT22;4799;50.996;4.754;2022-11-09T16:32:32;11.80;99.90
8862;DHT22;4799;50.996;4.754;2022-11-09T16:34:58;11.80;99.90
8862;DHT22;4799;50.996;4.754;2022-11-09T16:37:24;11.70;99.90
8862;DHT22;4799;50.996;4.754;2022-11-09T16:39:50;11.70;99.90
8862;DHT22;4799;50.996;4.754;2022-11-09T16:42:17;11.60;99.90
8862;DHT22;4799;50.996;4.754;2022-11-09T16:44:45;11.60;99.90
8862;DHT22;4799;50.996;4.754;2022-11-09T16:47:14;11.50;99.90
8862;DHT22;4799;50.996;4.754;2022-11-09T16:49:40;11.50;99.90
8862;DHT22;4799;50.996;4.754;2022-11-09T16:52:06;11.50;99.90
8862;DHT22;4799;50.996;4.754;2022-11-09T16:54:32;11.40;99.90
8862;DHT22;4799;50.996;4.754;2022-11-09T16:56:58;11.40;99.90
8862;DHT22;4799;50.996;4.754;2022-11-09T16:59:24;11.30;99.90
8862;DHT22;4799;50.996;4.754;2022-11-09T17:01:55;11.30;99.90
8862;DHT22;4799;50.996;4.754;2022-11-09T17:04:21;11.30;99.90
8862;DHT22;4799;50.996;4.754;2022-11-09T17:06:48;11.20;99.90
8862;DHT22;4799;50.996;4.754;2022-11-09T17:09:14;11.20;99.90
8862;DHT22;4799;50.996;4.754;2022-11-09T17:11:41;11.20;99.90
8862;DHT22;4799;50.996;4.754;2022-11-09T17:14:07;11.20;99.90
8862;DHT22;4799;50.996;4.754;2022-11-09T17:16:33;11.10;99.90
8862;DHT22;4799;50.996;4.754;2022-11-09T17:18:59;11.10;99.90
8862;DHT22;4799;50.996;4.754;2022-11-09T17:21:26;11.10;99.90
8862;DHT22;4799;50.996;4.754;2022-11-09T17:23:53;11.00;99.90
8862;DHT22;4799;50.996;4.754;2022-11-09T17:26:19;11.00;99.90
8862;DHT22;4799;50.996;4.754;2022-11-09T17:28:46;11.00;99.90
8862;DHT22;4799;50.996;4.754;2022-11-09T17:31:18;10.90;99.90
8862;DHT22;4799;50.996;4.754;2022-11-09T17:33:44;10.90;99.90
8862;DHT22;4799;50.996;4.754;2022-11-09T17:36:12;10.90;99.90
8862;DHT22;4799;50.996;4.754;2022-11-09T17:38:38;10.90;99.90
8862;DHT22;4799;50.996;4.754;2022-11-09T17:41:13;10.80;99.90
8862;DHT22;4799;50.996;4.754;2022-11-09T17:43:40;10.80;99.90
8862;DHT22;4799;50.996;4.754;2022-11-09T17:46:11;10.80;99.90
8862;DHT22;4799;50.996;4.754;2022-11-09T17:48:38;10.80;99.90
8862;DHT22;4799;50.996;4.754;2022-11-09T17:51:05;10.80;99.90
8862;DHT22;4799;50.996;4.754;2022-11-09T17:53:31;10.70;99.90
8862;DHT22;4799;50.996;4.754;2022-11-09T17:55:57;10.80;99.90
8862;DHT22;4799;50.996;4.754;2022-11-09T17:58:23;10.70;99.90
8862;DHT22;4799;50.996;4.754;2022-11-09T18:00:49;10.70;99.90
8862;DHT22;4799;50.996;4.754;2022-11-09T18:03:14;10.70;99.90